Welcome to the New NWS' Forecast!
Most changes are behind the scenes, but click here for differences you might notice.

Terminal Aerodrome Forecast (TAF)

Issued by National Weather Service (NWS)

                            
187 
FTUS42 KKEY 181505 AAA
TAFMTH
TAF AMD
KMTH 181505Z 1815/1912 10006KT P6SM VCSH SCT025 BKN250
      TEMPO 1815/1818 3SM SHRA BKN025 BKN040
     FM190100 11006KT P6SM VCSH SCT025=